Flight Track Log - Related Links

Times and Time Zones

All times are in EDT time to prevent confusion due to time zone crossing. See the KLM765 flight status page for this flight to view local times or setup timezone preferences in your user account.

Time Position Orientation Groundspeed Altitude Reporting Facility
EDT Latitude Longitude Course Direction KTS MPH feet Rate Location/Type
Tue 05:58:00 PM 12.3858 -69.4638 102° East  Level Estimated
Tue 05:59:00 PM 12.3790 -69.4314 102° East  Level Estimated
Tue 06:00:00 PM 12.3721 -69.3990 102° East  Level Estimated
Tue 06:01:00 PM 12.3653 -69.3665 102° East  Level Estimated
Tue 06:02:00 PM 12.3521 -69.3040 102° East  Level Estimated
Tue 06:03:00 PM 12.3389 -69.2415 102° East  Level Estimated
Tue 06:04:00 PM 12.3256 -69.1790 102° East  Level Estimated
Tue 06:05:00 PM 12.3124 -69.1165 102° East  Level Estimated
Tue 06:06:00 PM 12.2991 -69.0540 102° East  Level Estimated
Tue 06:07:00 PM 12.2858 -68.9916 102° East  Level Estimated
Tue 06:08:00 PM 12.2725 -68.9291 102° East  Level Estimated
Tue 06:09:00 PM 12.2592 -68.8666 102° East  Level Estimated
Tue 06:10:00 PM 12.2459 -68.8042 102° East  Level Estimated
Tue 06:11:00 PM 12.2326 -68.7417 102° East  Level Estimated
Tue 06:12:00 PM 12.2192 -68.6792 102° East  Level Estimated
Tue 06:13:00 PM 12.2059 -68.6168 102° East  Level Estimated
Tue 06:14:00 PM 12.1925 -68.5544 102° East  Level Estimated
Tue 06:15:00 PM 12.1791 -68.4919 102° East  Level Estimated
Tue 06:16:00 PM 12.1652 -68.4272 102° East  Level Estimated
Tue 06:17:00 PM 12.1513 -68.3624 102° East  Level Estimated
Tue 06:18:00 PM 12.1373 -68.2977 102° East  Level Estimated
Tue 06:19:00 PM 12.1310 -68.2685 102° East  Level Estimated
Tue 06:20:00 PM 12.1310 -68.2685 346° North  Level Estimated
Tue 06:21:00 PM 12.1310 -68.2685 346° North  Level Estimated
Tue 06:22:00 PM 12.1310 -68.2685 346° North  Level Estimated
Tue 06:23:00 PM 12.1310 -68.2685 346° North  Level Estimated
Tue 06:24:00 PM 12.1310 -68.2685 346° North  Level Estimated

Login

Don't have an account? Register now (free) for customized features, flight alerts, and more!